Terminal Aerodrome Forecast
Issued by NWS Louisville, KY

Home | Current Version | Previous Version | Text Only | Print | Product List | Glossary On
Versions: 1 2 3 4 5 6 7 8 9 10 11 12 13
000
FTUS43 KLMK 130500
TAFBWG
TAF
KBWG 130526Z 1306/1406 35004KT P6SM OVC021
     FM130800 34004KT P6SM VCSH OVC015
      TEMPO 1308/1312 BKN008
     FM131600 02007KT P6SM BKN025
     FM132000 03007KT P6SM SCT035
     FM140200 03003KT P6SM SKC=

USA.gov is the U.S. government's official web portal to all federal, state and local government web resources and services.